Time;durP1;ratioP1;P1;durP2;ratioP2;P2;SDS_P1;SDS_P2;PMS_P1;PMS_P2;Temp;Humidity;BMP_temperature;BMP_pressure;BME280_temperature;BME280_humidity;BME280_pressure;Samples;Min_cycle;Max_cycle;Signal;HPM_P1;HPM_P2
2021/12/02 00:02:10;;;;;;;3.60;2.05;;;;;;;;;;5070655;28;20205;-79
2021/12/02 00:04:38;;;;;;;9.05;2.10;;;;;;;;;;5063354;28;20265;-79
2021/12/02 00:07:05;;;;;;;2.42;2.20;;;;;;;;;;5059238;28;20185;-79
2021/12/02 00:09:31;;;;;;;4.90;2.15;;;;;;;;;;5058773;28;20207;-80
2021/12/02 00:11:57;;;;;;;6.00;2.38;;;;;;;;;;5058312;28;20230;-80
2021/12/02 00:14:26;;;;;;;8.55;2.60;;;;;;;;;;5058498;28;20189;-79
2021/12/02 00:22:10;;;;;;;5.38;1.88;;;;;;;;;;5062077;28;20188;-79
2021/12/02 00:24:37;;;;;;;4.90;2.05;;;;;;;;;;5057831;28;20192;-79
2021/12/02 00:27:08;;;;;;;1.70;1.48;;;;;;;;;;5057994;28;20184;-78
2021/12/02 00:29:35;;;;;;;3.25;1.58;;;;;;;;;;5059108;28;20219;-79
2021/12/02 00:32:06;;;;;;;1.75;1.48;;;;;;;;;;5059714;28;20351;-78
2021/12/02 00:34:32;;;;;;;3.63;2.05;;;;;;;;;;5062259;28;20192;-79
2021/12/02 00:36:58;;;;;;;2.08;1.55;;;;;;;;;;5060080;28;20184;-79
2021/12/02 00:39:24;;;;;;;2.45;1.67;;;;;;;;;;5058638;28;20201;-79
2021/12/02 00:41:50;;;;;;;2.95;1.55;;;;;;;;;;5058466;28;20181;-78
2021/12/02 00:44:18;;;;;;;3.20;1.77;;;;;;;;;;5059916;28;20177;-79
2021/12/02 00:46:45;;;;;;;2.97;1.98;;;;;;;;;;5061252;28;20177;-78
2021/12/02 00:49:13;;;;;;;2.20;1.40;;;;;;;;;;5060463;28;20271;-80
2021/12/02 00:51:40;;;;;;;2.63;2.00;;;;;;;;;;5058009;28;20185;-79
2021/12/02 00:54:08;;;;;;;2.88;1.40;;;;;;;;;;5058131;28;20203;-80
2021/12/02 00:56:34;;;;;;;3.10;1.40;;;;;;;;;;5059553;28;20191;-80
2021/12/02 00:59:00;;;;;;;4.00;2.40;;;;;;;;;;5059623;28;20220;-79
2021/12/02 01:01:33;;;;;;;3.42;3.13;;;;;;;;;;5065064;28;20675;-80
2021/12/02 01:03:59;;;;;;;4.53;2.97;;;;;;;;;;5061716;28;20232;-79
2021/12/02 01:06:26;;;;;;;4.00;3.05;;;;;;;;;;5061419;28;20224;-78
2021/12/02 01:08:52;;;;;;;9.13;2.97;;;;;;;;;;5062498;28;20177;-79
2021/12/02 01:11:18;;;;;;;3.40;2.08;;;;;;;;;;5064057;28;20181;-79
2021/12/02 01:13:45;;;;;;;7.05;1.95;;;;;;;;;;5066025;28;20170;-79
2021/12/02 01:16:12;;;;;;;3.28;1.70;;;;;;;;;;5063414;28;20600;-80
2021/12/02 01:18:38;;;;;;;6.25;1.90;;;;;;;;;;5061182;28;20293;-79
2021/12/02 01:21:04;;;;;;;2.65;1.58;;;;;;;;;;5061447;28;20189;-79
2021/12/02 01:23:32;;;;;;;2.80;1.60;;;;;;;;;;5061946;28;20214;-79
2021/12/02 01:26:00;;;;;;;6.50;2.95;;;;;;;;;;5075850;28;20168;-79
2021/12/02 01:28:26;;;;;;;3.65;1.90;;;;;;;;;;5065495;28;20177;-79
2021/12/02 01:30:53;;;;;;;1.67;1.45;;;;;;;;;;5059913;28;20182;-79
2021/12/02 01:33:20;;;;;;;3.95;1.40;;;;;;;;;;5070858;28;20190;-79
2021/12/02 01:35:50;;;;;;;1.95;1.60;;;;;;;;;;5060343;28;20192;-79
2021/12/02 01:38:17;;;;;;;2.30;1.55;;;;;;;;;;5063500;28;20204;-80
2021/12/02 01:40:46;;;;;;;4.35;1.90;;;;;;;;;;5064786;28;20188;-78
2021/12/02 01:43:16;;;;;;;4.50;1.92;;;;;;;;;;5063856;28;20634;-80
2021/12/02 01:45:42;;;;;;;2.97;2.15;;;;;;;;;;5062008;28;20309;-79
2021/12/02 01:48:15;;;;;;;2.20;1.80;;;;;;;;;;5063970;28;20203;-79
2021/12/02 01:50:43;;;;;;;3.75;1.70;;;;;;;;;;5063059;28;20189;-79
2021/12/02 01:53:14;;;;;;;3.20;2.30;;;;;;;;;;5046693;28;20177;-79
2021/12/02 01:55:42;;;;;;;2.45;1.58;;;;;;;;;;5062072;28;20181;-79
2021/12/02 01:58:14;;;;;;;5.43;1.90;;;;;;;;;;5062696;28;20197;-79
2021/12/02 02:00:44;;;;;;;2.42;1.98;;;;;;;;;;5063587;28;20189;-79
2021/12/02 02:03:11;;;;;;;3.03;1.90;;;;;;;;;;5063580;28;20181;-79
2021/12/02 02:05:37;;;;;;;2.03;1.70;;;;;;;;;;5063029;28;20185;-79
2021/12/02 02:08:03;;;;;;;1.80;1.70;;;;;;;;;;5061483;28;20272;-79
2021/12/02 02:10:32;;;;;;;2.83;1.55;;;;;;;;;;5063579;28;20181;-79
2021/12/02 02:13:00;;;;;;;2.45;1.55;;;;;;;;;;5062147;28;20188;-79
2021/12/02 02:15:27;;;;;;;2.53;2.30;;;;;;;;;;5062743;28;20548;-79
2021/12/02 02:18:00;;;;;;;6.63;1.83;;;;;;;;;;5062635;28;20252;-78
2021/12/02 02:20:37;;;;;;;2.13;1.90;;;;;;;;;;5061330;28;20206;-79
2021/12/02 02:23:05;;;;;;;4.00;1.90;;;;;;;;;;5063034;28;20177;-78
2021/12/02 02:25:31;;;;;;;4.55;2.42;;;;;;;;;;5065386;28;20229;-79
2021/12/02 02:27:57;;;;;;;2.30;1.90;;;;;;;;;;5062604;28;20204;-79
2021/12/02 02:30:23;;;;;;;2.92;1.67;;;;;;;;;;5062981;28;20185;-79
2021/12/02 02:32:49;;;;;;;3.38;1.77;;;;;;;;;;5061946;28;20259;-80
2021/12/02 02:35:15;;;;;;;2.15;1.95;;;;;;;;;;5061432;28;20240;-79
2021/12/02 02:37:42;;;;;;;5.00;2.03;;;;;;;;;;5063577;28;20203;-78
2021/12/02 02:40:10;;;;;;;1.92;1.50;;;;;;;;;;5064018;28;20180;-79
2021/12/02 02:42:37;;;;;;;4.28;2.50;;;;;;;;;;5061500;28;20177;-80
2021/12/02 02:45:03;;;;;;;3.03;1.70;;;;;;;;;;5062736;28;20216;-80
2021/12/02 02:47:30;;;;;;;2.92;2.20;;;;;;;;;;5062191;28;20181;-79
2021/12/02 02:49:56;;;;;;;3.85;1.98;;;;;;;;;;5060956;28;20781;-78
2021/12/02 02:52:22;;;;;;;10.55;2.95;;;;;;;;;;5062029;28;20211;-78
2021/12/02 02:54:48;;;;;;;4.28;1.83;;;;;;;;;;5060565;28;20180;-79
2021/12/02 02:57:17;;;;;;;8.10;2.53;;;;;;;;;;5060880;28;20241;-78
2021/12/02 03:04:53;;;;;;;4.15;2.10;;;;;;;;;;5060204;28;20192;-78
2021/12/02 03:07:27;;;;;;;3.83;1.40;;;;;;;;;;5063274;28;20180;-78
2021/12/02 03:10:00;;;;;;;2.08;1.75;;;;;;;;;;5060950;28;20176;-79
2021/12/02 03:12:42;;;;;;;2.38;1.30;;;;;;;;;;5061401;28;20248;-78
2021/12/02 03:17:34;;;;;;;3.42;2.33;;;;;;;;;;5061925;28;20288;-79
2021/12/02 03:20:00;;;;;;;6.88;1.95;;;;;;;;;;5060701;28;20177;-78
2021/12/02 03:22:27;;;;;;;3.15;1.40;;;;;;;;;;5063011;28;20211;-78
2021/12/02 03:24:53;;;;;;;4.15;1.58;;;;;;;;;;5062052;28;20443;-78
2021/12/02 03:27:19;;;;;;;2.20;1.30;;;;;;;;;;5062711;28;20712;-78
2021/12/02 03:29:45;;;;;;;3.50;1.40;;;;;;;;;;5061976;28;20185;-82
2021/12/02 03:32:11;;;;;;;4.90;1.40;;;;;;;;;;5060102;28;20208;-79
2021/12/02 03:34:38;;;;;;;1.48;1.10;;;;;;;;;;5058516;28;20240;-80
2021/12/02 03:37:04;;;;;;;2.33;1.42;;;;;;;;;;5062385;28;20192;-79
2021/12/02 03:39:30;;;;;;;6.55;1.85;;;;;;;;;;5061532;28;20212;-79
2021/12/02 03:41:57;;;;;;;3.65;1.42;;;;;;;;;;5061897;28;20178;-80
2021/12/02 03:44:24;;;;;;;4.82;1.55;;;;;;;;;;5060107;28;20201;-78
2021/12/02 03:46:50;;;;;;;3.20;1.42;;;;;;;;;;5059995;28;20237;-80
2021/12/02 03:49:16;;;;;;;3.53;1.50;;;;;;;;;;5061145;28;20196;-82
2021/12/02 03:51:42;;;;;;;4.10;1.25;;;;;;;;;;5060442;28;20188;-79
2021/12/02 03:54:08;;;;;;;2.78;1.23;;;;;;;;;;5060748;28;20181;-85
2021/12/02 03:56:35;;;;;;;2.78;1.13;;;;;;;;;;5062098;28;20177;-79
2021/12/02 03:59:01;;;;;;;2.83;1.58;;;;;;;;;;5061118;28;20243;-79
2021/12/02 04:01:27;;;;;;;4.68;1.25;;;;;;;;;;5046194;28;20174;-82
2021/12/02 04:03:53;;;;;;;1.70;1.05;;;;;;;;;;5070187;28;20339;-79
2021/12/02 04:06:19;;;;;;;1.25;1.00;;;;;;;;;;5053373;28;20175;-78
2021/12/02 04:08:56;;;;;;;4.93;0.90;;;;;;;;;;5059801;28;20185;-80
2021/12/02 04:11:40;;;;;;;2.70;0.90;;;;;;;;;;5060052;28;20186;-78
2021/12/02 04:16:37;;;;;;;2.80;1.35;;;;;;;;;;5062807;28;20181;-78
2021/12/02 04:19:04;;;;;;;5.40;1.33;;;;;;;;;;5060777;28;20300;-78
2021/12/02 04:21:30;;;;;;;4.82;2.08;;;;;;;;;;5061688;28;20176;-79
2021/12/02 04:23:56;;;;;;;1.98;1.70;;;;;;;;;;5061308;28;20264;-78
2021/12/02 04:26:22;;;;;;;7.07;1.45;;;;;;;;;;5061266;28;20227;-79
2021/12/02 04:28:48;;;;;;;2.70;1.40;;;;;;;;;;5060426;28;20184;-79
2021/12/02 04:31:14;;;;;;;6.10;1.30;;;;;;;;;;5061791;28;20618;-79
2021/12/02 04:33:40;;;;;;;3.35;2.40;;;;;;;;;;5059572;28;20191;-81
2021/12/02 04:36:07;;;;;;;3.35;1.20;;;;;;;;;;5063350;28;20192;-78
2021/12/02 04:38:32;;;;;;;5.07;1.83;;;;;;;;;;5064875;28;20216;-79
2021/12/02 04:40:59;;;;;;;9.82;1.83;;;;;;;;;;5064799;28;20179;-79
2021/12/02 04:43:25;;;;;;;8.52;1.65;;;;;;;;;;5064555;28;20226;-80
2021/12/02 04:45:52;;;;;;;9.15;2.75;;;;;;;;;;5063724;28;20189;-81
2021/12/02 04:48:18;;;;;;;3.63;1.85;;;;;;;;;;5065219;28;20181;-80
2021/12/02 04:50:44;;;;;;;2.78;1.17;;;;;;;;;;5063098;28;20185;-79
2021/12/02 04:53:11;;;;;;;6.22;1.52;;;;;;;;;;5064490;28;20627;-80
2021/12/02 04:55:37;;;;;;;5.97;1.98;;;;;;;;;;5065777;28;20181;-82
2021/12/02 04:58:03;;;;;;;8.23;1.35;;;;;;;;;;5063933;28;20212;-80
2021/12/02 05:00:29;;;;;;;2.63;1.98;;;;;;;;;;5062926;28;20184;-81
2021/12/02 05:02:55;;;;;;;4.72;1.85;;;;;;;;;;5064997;28;20181;-80
2021/12/02 05:05:22;;;;;;;4.72;2.03;;;;;;;;;;5064580;28;20211;-86
2021/12/02 05:07:49;;;;;;;2.78;1.60;;;;;;;;;;5064827;28;20184;-79
2021/12/02 05:10:15;;;;;;;5.15;1.90;;;;;;;;;;5064968;28;20169;-81
2021/12/02 05:12:41;;;;;;;5.60;2.05;;;;;;;;;;5062700;28;20185;-80
2021/12/02 05:15:07;;;;;;;6.35;1.88;;;;;;;;;;5063703;28;20238;-81
2021/12/02 05:17:36;;;;;;;3.58;1.90;;;;;;;;;;5063776;28;20231;-82
2021/12/02 05:20:03;;;;;;;2.30;1.10;;;;;;;;;;5062770;28;20315;-80
2021/12/02 05:22:29;;;;;;;10.10;3.15;;;;;;;;;;5064292;28;20180;-85
2021/12/02 05:24:55;;;;;;;6.95;2.10;;;;;;;;;;5061734;28;20181;-83
2021/12/02 05:27:21;;;;;;;5.90;1.88;;;;;;;;;;5063139;28;20185;-81
2021/12/02 05:29:47;;;;;;;6.78;1.75;;;;;;;;;;5062204;28;20181;-80
2021/12/02 05:32:13;;;;;;;3.78;1.52;;;;;;;;;;5061259;28;20189;-82
2021/12/02 05:34:39;;;;;;;4.07;1.75;;;;;;;;;;5065447;28;20181;-81
2021/12/02 05:37:06;;;;;;;7.65;2.10;;;;;;;;;;5063820;28;20220;-81
2021/12/02 05:39:32;;;;;;;4.00;1.50;;;;;;;;;;5064156;28;20498;-81
2021/12/02 05:41:58;;;;;;;8.20;2.10;;;;;;;;;;5063728;28;20177;-81
2021/12/02 05:44:24;;;;;;;1.70;1.23;;;;;;;;;;5063739;28;20203;-80
2021/12/02 05:46:51;;;;;;;5.82;1.40;;;;;;;;;;5062006;28;20173;-81
2021/12/02 05:49:17;;;;;;;3.78;1.38;;;;;;;;;;5064562;28;20211;-81
2021/12/02 05:51:45;;;;;;;4.03;1.95;;;;;;;;;;5063788;28;20185;-80
2021/12/02 05:54:11;;;;;;;4.43;1.70;;;;;;;;;;5062666;28;20609;-82
2021/12/02 05:56:37;;;;;;;4.95;1.83;;;;;;;;;;5063652;28;20545;-81
2021/12/02 05:59:03;;;;;;;2.45;1.63;;;;;;;;;;5062111;28;20263;-82
2021/12/02 06:01:29;;;;;;;2.25;1.30;;;;;;;;;;5064909;28;20165;-81
2021/12/02 06:03:55;;;;;;;6.93;1.60;;;;;;;;;;5063484;28;20187;-81
2021/12/02 06:06:24;;;;;;;5.10;1.50;;;;;;;;;;5064301;28;20661;-81
2021/12/02 06:08:50;;;;;;;2.38;1.70;;;;;;;;;;5061833;28;20247;-81
2021/12/02 06:11:16;;;;;;;2.80;1.30;;;;;;;;;;5062360;28;20655;-80
2021/12/02 06:13:42;;;;;;;4.20;1.50;;;;;;;;;;5064525;28;20181;-79
2021/12/02 06:16:08;;;;;;;8.60;2.22;;;;;;;;;;5062981;28;20180;-81
2021/12/02 06:18:34;;;;;;;4.30;1.25;;;;;;;;;;5063105;28;20657;-81
2021/12/02 06:21:00;;;;;;;6.63;1.80;;;;;;;;;;5063185;28;20638;-81
2021/12/02 06:23:26;;;;;;;2.53;1.55;;;;;;;;;;5061885;28;20192;-81
2021/12/02 06:25:52;;;;;;;3.63;1.60;;;;;;;;;;5062500;28;20661;-81
2021/12/02 06:28:19;;;;;;;8.52;1.88;;;;;;;;;;5063347;28;20173;-81
2021/12/02 06:30:45;;;;;;;6.68;2.47;;;;;;;;;;5062796;28;20607;-82
2021/12/02 06:33:12;;;;;;;4.78;1.50;;;;;;;;;;5061830;28;20207;-81
2021/12/02 06:35:38;;;;;;;2.70;1.33;;;;;;;;;;5061538;28;20272;-81
2021/12/02 06:38:04;;;;;;;3.40;1.73;;;;;;;;;;5062717;28;20235;-81
2021/12/02 06:40:31;;;;;;;3.97;1.70;;;;;;;;;;5048070;28;20181;-81
2021/12/02 06:42:57;;;;;;;2.85;1.10;;;;;;;;;;5060311;28;20169;-81
2021/12/02 06:45:23;;;;;;;5.18;1.75;;;;;;;;;;5060972;28;20622;-80
2021/12/02 06:47:51;;;;;;;10.65;1.45;;;;;;;;;;5063002;28;20189;-81
2021/12/02 06:50:19;;;;;;;3.25;1.40;;;;;;;;;;5060726;28;20190;-81
2021/12/02 06:52:48;;;;;;;5.88;1.55;;;;;;;;;;5064234;28;20176;-80
2021/12/02 06:55:14;;;;;;;5.18;1.40;;;;;;;;;;5063452;28;20226;-81
2021/12/02 06:57:41;;;;;;;2.92;1.25;;;;;;;;;;5062168;28;20185;-81
2021/12/02 07:00:09;;;;;;;4.88;1.70;;;;;;;;;;5062303;28;20180;-81
2021/12/02 07:02:36;;;;;;;5.78;1.50;;;;;;;;;;5062661;28;20188;-81
2021/12/02 07:05:02;;;;;;;3.00;1.60;;;;;;;;;;5062131;28;20273;-81
2021/12/02 07:07:32;;;;;;;1.90;1.38;;;;;;;;;;5062419;28;20263;-81
2021/12/02 07:10:03;;;;;;;7.00;1.80;;;;;;;;;;5061657;28;20526;-81
2021/12/02 07:12:31;;;;;;;3.20;1.25;;;;;;;;;;5063070;28;20332;-81
2021/12/02 07:14:59;;;;;;;4.55;1.90;;;;;;;;;;5062468;28;20239;-81
2021/12/02 07:17:25;;;;;;;5.05;2.17;;;;;;;;;;5062110;28;20216;-81
2021/12/02 07:19:51;;;;;;;7.20;1.85;;;;;;;;;;5061267;28;20199;-80
2021/12/02 07:22:17;;;;;;;8.98;2.20;;;;;;;;;;5062273;28;20169;-81
2021/12/02 07:24:43;;;;;;;5.57;1.75;;;;;;;;;;5061130;28;20192;-81
2021/12/02 07:27:09;;;;;;;5.43;1.92;;;;;;;;;;5062309;28;20181;-81
2021/12/02 07:29:35;;;;;;;8.63;2.00;;;;;;;;;;5060438;28;20212;-81
2021/12/02 07:32:02;;;;;;;8.65;2.13;;;;;;;;;;5062128;28;20180;-81
2021/12/02 07:34:33;;;;;;;6.32;2.85;;;;;;;;;;5058030;28;20177;-81
2021/12/02 07:36:59;;;;;;;5.47;1.63;;;;;;;;;;5071647;28;20692;-81
2021/12/02 07:39:25;;;;;;;9.70;2.50;;;;;;;;;;5065233;28;20201;-81
2021/12/02 07:41:51;;;;;;;4.15;1.80;;;;;;;;;;5059262;28;20180;-80
2021/12/02 07:44:18;;;;;;;8.23;2.20;;;;;;;;;;5059939;28;20609;-81
2021/12/02 07:46:44;;;;;;;8.45;2.00;;;;;;;;;;5064861;28;20204;-79
2021/12/02 07:49:14;;;;;;;7.90;2.20;;;;;;;;;;5072744;28;20175;-80
2021/12/02 07:51:43;;;;;;;2.47;1.73;;;;;;;;;;5054290;28;20181;-79
2021/12/02 07:54:09;;;;;;;3.67;1.80;;;;;;;;;;5059139;28;20263;-79
2021/12/02 07:56:35;;;;;;;5.90;2.50;;;;;;;;;;5052621;28;20189;-78
2021/12/02 07:59:01;;;;;;;4.63;2.25;;;;;;;;;;5056197;28;20677;-78
2021/12/02 08:01:27;;;;;;;5.22;2.17;;;;;;;;;;5059482;28;20204;-78
2021/12/02 08:03:53;;;;;;;5.57;1.77;;;;;;;;;;5058320;28;20192;-81
2021/12/02 08:06:19;;;;;;;5.28;2.03;;;;;;;;;;5055313;28;20267;-79
2021/12/02 08:08:46;;;;;;;8.70;2.72;;;;;;;;;;5060873;28;20291;-79
2021/12/02 08:11:12;;;;;;;9.48;1.95;;;;;;;;;;5059671;28;20234;-78
2021/12/02 08:13:39;;;;;;;7.45;1.80;;;;;;;;;;5059577;28;20203;-79
2021/12/02 08:16:07;;;;;;;11.27;2.80;;;;;;;;;;5060653;28;20189;-79
2021/12/02 08:18:33;;;;;;;2.83;1.77;;;;;;;;;;5060520;28;20221;-79
2021/12/02 08:21:00;;;;;;;6.15;1.75;;;;;;;;;;5058297;28;20566;-79
2021/12/02 08:23:26;;;;;;;4.15;2.22;;;;;;;;;;5059741;28;20173;-79
2021/12/02 08:25:54;;;;;;;5.38;2.55;;;;;;;;;;5060424;28;20173;-79
2021/12/02 08:28:20;;;;;;;9.25;2.38;;;;;;;;;;5061996;28;20245;-79
2021/12/02 08:30:46;;;;;;;5.78;1.92;;;;;;;;;;5060611;28;20700;-79
2021/12/02 08:33:13;;;;;;;4.63;1.92;;;;;;;;;;5058998;28;20188;-80
2021/12/02 08:35:40;;;;;;;7.68;2.47;;;;;;;;;;5060444;28;20208;-78
2021/12/02 08:38:11;;;;;;;3.97;1.67;;;;;;;;;;5060067;28;20205;-78
2021/12/02 08:40:39;;;;;;;6.35;2.22;;;;;;;;;;5063172;28;20185;-79
2021/12/02 08:43:07;;;;;;;4.50;1.70;;;;;;;;;;5059030;28;20189;-79
2021/12/02 08:45:33;;;;;;;3.33;1.65;;;;;;;;;;5059185;28;20565;-79
2021/12/02 08:48:00;;;;;;;5.32;1.58;;;;;;;;;;5059568;28;20180;-79
2021/12/02 08:50:26;;;;;;;6.18;1.83;;;;;;;;;;5056490;28;20292;-79
2021/12/02 08:52:53;;;;;;;9.48;2.10;;;;;;;;;;5061945;28;20192;-80
2021/12/02 08:55:20;;;;;;;3.05;1.30;;;;;;;;;;5062220;28;20188;-79
2021/12/02 08:57:46;;;;;;;7.53;2.38;;;;;;;;;;5060759;28;20459;-80
2021/12/02 09:00:14;;;;;;;4.20;1.60;;;;;;;;;;5060332;28;20177;-80
2021/12/02 09:02:40;;;;;;;6.63;2.25;;;;;;;;;;5057883;28;20181;-79
2021/12/02 09:05:06;;;;;;;3.17;1.50;;;;;;;;;;5058604;28;20614;-80
2021/12/02 09:07:33;;;;;;;6.95;1.60;;;;;;;;;;5050056;28;20166;-80
2021/12/02 09:09:59;;;;;;;12.48;3.17;;;;;;;;;;5070756;28;20190;-80
2021/12/02 09:12:25;;;;;;;9.15;2.03;;;;;;;;;;5057690;28;20552;-79
2021/12/02 09:14:51;;;;;;;7.30;2.17;;;;;;;;;;5059954;28;20693;-80
2021/12/02 09:17:18;;;;;;;7.15;3.00;;;;;;;;;;5059276;28;20226;-80
2021/12/02 09:19:44;;;;;;;7.07;1.70;;;;;;;;;;5060857;28;20239;-80
2021/12/02 09:22:10;;;;;;;3.92;2.00;;;;;;;;;;5075440;28;20269;-80
2021/12/02 09:24:36;;;;;;;6.63;2.65;;;;;;;;;;5073957;28;20238;-78
2021/12/02 09:27:02;;;;;;;11.90;3.13;;;;;;;;;;5064582;28;20208;-79
2021/12/02 09:29:29;;;;;;;9.32;2.20;;;;;;;;;;5063160;28;20200;-81
2021/12/02 09:31:55;;;;;;;11.10;2.17;;;;;;;;;;5063816;28;20204;-82
2021/12/02 09:34:21;;;;;;;5.22;1.77;;;;;;;;;;5063610;28;20622;-80
2021/12/02 09:36:48;;;;;;;3.63;1.73;;;;;;;;;;5064514;28;20260;-80
2021/12/02 09:39:14;;;;;;;10.88;2.95;;;;;;;;;;5064354;28;20211;-80
2021/12/02 09:41:40;;;;;;;8.32;1.80;;;;;;;;;;5064268;28;20177;-81
2021/12/02 09:44:06;;;;;;;4.13;2.00;;;;;;;;;;5064258;28;20185;-80
2021/12/02 09:46:33;;;;;;;11.00;1.92;;;;;;;;;;5063841;28;20215;-80
2021/12/02 09:49:02;;;;;;;6.68;1.85;;;;;;;;;;5062438;28;20188;-80
2021/12/02 09:51:33;;;;;;;9.80;2.33;;;;;;;;;;5063900;28;20274;-79
2021/12/02 09:54:15;;;;;;;7.30;2.10;;;;;;;;;;5064235;28;20192;-79
2021/12/02 09:56:45;;;;;;;6.18;2.05;;;;;;;;;;5062288;28;20185;-80
2021/12/02 09:59:23;;;;;;;4.15;1.83;;;;;;;;;;5047946;28;20286;-80
2021/12/02 10:01:52;;;;;;;10.57;1.90;;;;;;;;;;5062018;28;20188;-80
2021/12/02 10:04:19;;;;;;;7.40;2.40;;;;;;;;;;5063370;28;20211;-81
2021/12/02 10:06:46;;;;;;;3.83;1.90;;;;;;;;;;5063657;28;20245;-79
2021/12/02 10:09:15;;;;;;;4.10;1.75;;;;;;;;;;5061986;28;20204;-81
2021/12/02 10:11:51;;;;;;;14.15;2.42;;;;;;;;;;5062277;28;20249;-79
2021/12/02 10:14:32;;;;;;;6.93;2.55;;;;;;;;;;5048092;28;20185;-80
2021/12/02 10:17:08;;;;;;;6.50;2.17;;;;;;;;;;5062511;28;20169;-79
2021/12/02 10:19:35;;;;;;;4.18;1.90;;;;;;;;;;5063728;28;20205;-80
2021/12/02 10:22:09;;;;;;;5.15;2.30;;;;;;;;;;5061676;28;20189;-81
2021/12/02 10:24:41;;;;;;;5.00;2.17;;;;;;;;;;5063651;28;20176;-78
2021/12/02 10:27:08;;;;;;;9.70;3.55;;;;;;;;;;5063837;28;20205;-80
2021/12/02 10:29:35;;;;;;;8.38;2.42;;;;;;;;;;5063494;28;20205;-80
2021/12/02 10:32:04;;;;;;;5.10;2.45;;;;;;;;;;5062723;28;20180;-80
2021/12/02 10:34:30;;;;;;;8.57;2.42;;;;;;;;;;5062821;28;20185;-80
2021/12/02 10:37:08;;;;;;;8.55;1.75;;;;;;;;;;5063457;28;20197;-81
2021/12/02 10:39:34;;;;;;;5.85;2.65;;;;;;;;;;5063479;28;20235;-82
2021/12/02 10:42:04;;;;;;;5.15;1.95;;;;;;;;;;5061373;28;20177;-80
2021/12/02 10:44:34;;;;;;;3.83;2.80;;;;;;;;;;5061704;28;20174;-80
2021/12/02 10:47:03;;;;;;;6.07;2.05;;;;;;;;;;5061609;28;20376;-78
2021/12/02 10:49:31;;;;;;;2.75;1.85;;;;;;;;;;5062526;28;20192;-82
2021/12/02 10:51:58;;;;;;;4.50;1.90;;;;;;;;;;5062922;28;20268;-81
2021/12/02 10:54:26;;;;;;;3.30;1.40;;;;;;;;;;5061724;28;20184;-80
2021/12/02 10:56:54;;;;;;;3.28;1.45;;;;;;;;;;5061643;28;20192;-82
2021/12/02 10:59:29;;;;;;;10.10;2.25;;;;;;;;;;5061027;28;20216;-81
2021/12/02 11:01:57;;;;;;;1.90;1.67;;;;;;;;;;5062102;28;20179;-82
2021/12/02 11:04:23;;;;;;;3.78;1.60;;;;;;;;;;5074791;28;20170;-80
2021/12/02 11:06:51;;;;;;;5.03;1.48;;;;;;;;;;5073648;28;20181;-78
2021/12/02 11:09:30;;;;;;;6.22;1.95;;;;;;;;;;5061524;28;20185;-79
2021/12/02 11:12:12;;;;;;;5.53;1.13;;;;;;;;;;5062360;28;20208;-84
2021/12/02 11:15:01;;;;;;;1.08;0.70;;;;;;;;;;5062613;28;20185;-80
2021/12/02 11:17:30;;;;;;;3.80;1.17;;;;;;;;;;5054012;28;20267;-81
2021/12/02 11:19:56;;;;;;;5.50;1.30;;;;;;;;;;5061885;28;20213;-82
2021/12/02 11:22:23;;;;;;;3.40;1.50;;;;;;;;;;5062401;28;20176;-80
2021/12/02 11:24:50;;;;;;;4.93;0.95;;;;;;;;;;5060303;28;20181;-77
2021/12/02 11:27:24;;;;;;;2.00;0.80;;;;;;;;;;5062137;28;20207;-78
2021/12/02 11:29:50;;;;;;;3.67;1.00;;;;;;;;;;5059938;28;20204;-78
2021/12/02 11:32:42;;;;;;;3.08;0.85;;;;;;;;;;5060825;28;20201;-79
2021/12/02 11:35:12;;;;;;;2.53;1.00;;;;;;;;;;5056254;28;20201;-78
2021/12/02 11:37:38;;;;;;;1.65;0.90;;;;;;;;;;5061425;28;20165;-77
2021/12/02 11:40:07;;;;;;;2.08;0.98;;;;;;;;;;5059055;28;20212;-84
2021/12/02 11:42:33;;;;;;;1.95;0.80;;;;;;;;;;5060276;28;20181;-80
2021/12/02 11:44:59;;;;;;;0.80;0.70;;;;;;;;;;5060717;28;20181;-79
2021/12/02 11:47:25;;;;;;;2.50;1.13;;;;;;;;;;5061390;28;20244;-79
2021/12/02 11:49:51;;;;;;;0.95;0.80;;;;;;;;;;5060927;28;20631;-80
2021/12/02 11:52:17;;;;;;;3.25;0.90;;;;;;;;;;5063029;28;20169;-78
2021/12/02 11:54:44;;;;;;;1.77;0.70;;;;;;;;;;5060162;28;20185;-78
2021/12/02 11:57:10;;;;;;;2.92;1.02;;;;;;;;;;5058615;28;20189;-78
2021/12/02 11:59:36;;;;;;;1.48;1.08;;;;;;;;;;5047525;28;20205;-79
2021/12/02 12:02:02;;;;;;;2.33;0.90;;;;;;;;;;5058023;28;20608;-80
2021/12/02 12:04:28;;;;;;;1.88;1.35;;;;;;;;;;5051849;28;20176;-80
2021/12/02 12:06:55;;;;;;;2.72;1.20;;;;;;;;;;5059201;28;20201;-81
2021/12/02 12:09:21;;;;;;;4.32;1.38;;;;;;;;;;5052335;28;20630;-79
2021/12/02 12:11:52;;;;;;;1.77;1.25;;;;;;;;;;5057643;28;20182;-80
2021/12/02 12:14:21;;;;;;;2.58;1.20;;;;;;;;;;5058618;28;20220;-82
2021/12/02 12:16:48;;;;;;;1.83;1.10;;;;;;;;;;5044977;28;20216;-82
2021/12/02 12:19:14;;;;;;;3.95;1.50;;;;;;;;;;5060688;28;20228;-77
2021/12/02 12:21:44;;;;;;;3.22;1.05;;;;;;;;;;5060874;28;20181;-81
2021/12/02 12:24:10;;;;;;;3.15;1.58;;;;;;;;;;5058553;28;20180;-83
2021/12/02 12:26:37;;;;;;;1.15;0.82;;;;;;;;;;5060268;28;20181;-79
2021/12/02 12:29:07;;;;;;;6.72;1.23;;;;;;;;;;5059439;28;20193;-81
2021/12/02 12:31:46;;;;;;;3.03;0.85;;;;;;;;;;5052959;28;20176;-78
2021/12/02 12:34:32;;;;;;;2.35;1.00;;;;;;;;;;5061156;28;20245;-80
2021/12/02 12:36:58;;;;;;;1.10;1.00;;;;;;;;;;5061093;28;20657;-79
2021/12/02 12:39:30;;;;;;;1.48;0.80;;;;;;;;;;5060773;28;20645;-80
2021/12/02 12:42:17;;;;;;;3.25;1.10;;;;;;;;;;5053045;28;20234;-80
2021/12/02 12:44:47;;;;;;;1.33;0.85;;;;;;;;;;5073076;28;20211;-82
2021/12/02 12:47:13;;;;;;;1.50;0.70;;;;;;;;;;5052150;28;20219;-81
2021/12/02 12:49:39;;;;;;;1.40;0.95;;;;;;;;;;5062543;28;20692;-80
2021/12/02 12:52:15;;;;;;;2.65;1.50;;;;;;;;;;5056084;28;20538;-84
2021/12/02 12:54:41;;;;;;;5.20;1.00;;;;;;;;;;5061183;28;20184;-82
2021/12/02 12:57:08;;;;;;;1.00;0.80;;;;;;;;;;5064596;28;20181;-81
2021/12/02 12:59:50;;;;;;;6.03;1.15;;;;;;;;;;5063840;28;20261;-80
2021/12/02 13:02:16;;;;;;;2.03;0.98;;;;;;;;;;5073645;28;20189;-80
2021/12/02 13:04:54;;;;;;;1.45;0.80;;;;;;;;;;5064399;28;20189;-78
2021/12/02 13:07:21;;;;;;;2.55;1.10;;;;;;;;;;5063972;28;20169;-82
2021/12/02 13:10:02;;;;;;;2.53;1.00;;;;;;;;;;5045324;28;20280;-78
2021/12/02 13:12:37;;;;;;;2.30;0.80;;;;;;;;;;5056515;28;20177;-80
2021/12/02 13:15:05;;;;;;;1.85;1.08;;;;;;;;;;5074106;28;20279;-78
2021/12/02 13:17:45;;;;;;;2.88;1.10;;;;;;;;;;5061554;28;20704;-78
2021/12/02 13:20:20;;;;;;;2.15;0.95;;;;;;;;;;5055174;28;20208;-79
2021/12/02 13:23:06;;;;;;;2.35;0.90;;;;;;;;;;5062305;28;20235;-79
2021/12/02 13:25:42;;;;;;;2.00;0.70;;;;;;;;;;5065149;28;20184;-80
2021/12/02 13:28:16;;;;;;;3.83;0.90;;;;;;;;;;5062254;28;20634;-80
2021/12/02 13:30:46;;;;;;;3.70;1.08;;;;;;;;;;5059328;28;20324;-82
2021/12/02 13:33:12;;;;;;;3.28;1.08;;;;;;;;;;5073145;28;20181;-81
2021/12/02 13:35:38;;;;;;;1.10;0.90;;;;;;;;;;5063434;28;20196;-80
2021/12/02 13:38:05;;;;;;;2.57;1.30;;;;;;;;;;5059207;28;20202;-80
2021/12/02 13:40:35;;;;;;;2.05;1.00;;;;;;;;;;5076336;28;20435;-80
2021/12/02 13:43:01;;;;;;;2.58;0.85;;;;;;;;;;5051114;28;20273;-79
2021/12/02 13:45:29;;;;;;;2.13;1.10;;;;;;;;;;5068698;28;20174;-82
2021/12/02 13:48:12;;;;;;;1.33;0.85;;;;;;;;;;5052870;28;20260;-83
2021/12/02 13:50:44;;;;;;;2.97;1.00;;;;;;;;;;5071988;28;20185;-84
2021/12/02 13:53:10;;;;;;;1.83;1.08;;;;;;;;;;5062874;28;20181;-82
2021/12/02 13:55:38;;;;;;;3.72;1.05;;;;;;;;;;5065183;28;20204;-82
2021/12/02 14:00:44;;;;;;;4.13;0.98;;;;;;;;;;5061726;28;20263;-82
2021/12/02 14:03:13;;;;;;;2.38;0.90;;;;;;;;;;5062504;28;20177;-83
2021/12/02 14:05:40;;;;;;;5.15;1.10;;;;;;;;;;5062069;28;20518;-81
2021/12/02 14:08:08;;;;;;;1.10;0.95;;;;;;;;;;5061610;28;20212;-80
2021/12/02 14:10:35;;;;;;;2.05;1.20;;;;;;;;;;5049322;28;20192;-81
2021/12/02 14:13:03;;;;;;;3.55;1.40;;;;;;;;;;5060293;28;20189;-80
2021/12/02 14:15:42;;;;;;;1.33;0.98;;;;;;;;;;5050975;28;20189;-82
2021/12/02 14:18:14;;;;;;;2.45;0.85;;;;;;;;;;5056152;28;20598;-82
2021/12/02 14:20:41;;;;;;;3.60;0.90;;;;;;;;;;5061359;28;20177;-81
2021/12/02 14:23:27;;;;;;;2.20;1.50;;;;;;;;;;5060736;28;20193;-81
2021/12/02 14:26:13;;;;;;;2.95;0.90;;;;;;;;;;5051500;28;20200;-82
2021/12/02 14:28:42;;;;;;;2.08;0.90;;;;;;;;;;5064670;28;20177;-82
2021/12/02 14:31:20;;;;;;;2.05;1.00;;;;;;;;;;5061180;28;20185;-83
2021/12/02 14:33:46;;;;;;;5.57;1.00;;;;;;;;;;5060108;28;20220;-82
2021/12/02 14:36:13;;;;;;;2.85;1.10;;;;;;;;;;5062811;28;20185;-82
2021/12/02 14:38:40;;;;;;;5.05;1.10;;;;;;;;;;5061265;28;20201;-81
2021/12/02 14:41:08;;;;;;;3.00;1.05;;;;;;;;;;5061806;28;20204;-81
2021/12/02 14:43:34;;;;;;;2.20;1.00;;;;;;;;;;5065098;28;20185;-79
2021/12/02 14:46:15;;;;;;;2.85;1.30;;;;;;;;;;5059510;28;20203;-80
2021/12/02 14:48:41;;;;;;;3.40;1.13;;;;;;;;;;5061464;28;20173;-82
2021/12/02 14:51:09;;;;;;;2.25;0.70;;;;;;;;;;5060533;28;20212;-83
2021/12/02 14:53:55;;;;;;;3.28;1.38;;;;;;;;;;5060435;28;20196;-81
2021/12/02 14:56:23;;;;;;;3.40;0.85;;;;;;;;;;5061857;28;20197;-80
2021/12/02 14:59:09;;;;;;;2.65;1.00;;;;;;;;;;5062542;28;20185;-80
2021/12/02 15:01:36;;;;;;;2.60;0.90;;;;;;;;;;5063724;28;20173;-81
2021/12/02 15:04:18;;;;;;;2.78;1.42;;;;;;;;;;5060527;28;20181;-81
2021/12/02 15:06:44;;;;;;;4.35;1.13;;;;;;;;;;5062921;28;20188;-82
2021/12/02 15:09:30;;;;;;;2.20;0.90;;;;;;;;;;5061891;28;20182;-80